Warren, MN (56762)

8:11 AM CDT on September 05, 2015 (GMT -0500)
Grand Forks International | | Change Station
CLOSE
Current Station
Airport
Location: Grand Forks,
Elevation: 843 ft
Nearby Weather Stations

Elev 843 ft 47.95 °N, 97.18 °W | Updated 18 minutes ago

Overcast
Overcast
63 °F
Feels Like 63 °F
N
13
Wind Variable Wind from NNE

Today
High -- | Low -- °F
--% Chance of Precip.
Yesterday
High -- | Low -- °F
Precip. -- in
6:49 AM 8:00 PM
Waning Gibbous, 49% visible
Pressure 29.88 in
Visibility 1.5 miles
Clouds Overcast 200 ft
Dew Point 62 °F
Humidity 97%
Rainfall 0.00 in
Snow Depth Not available.
UV 0 out of 12
Pollen 7.20 out of 12
Air Quality Not available.
Flu Activity Not available.
METAR KGFK 051253Z 02011KT 1 1/2SM BR OVC002 17/17 A2988 RMK AO2 SFC VIS 5 SLP116 T01720167
Pressure 29.88 in
Visibility 1.5 miles
Clouds Overcast 200 ft
Dew Point 62 °F
Humidity 97%
Rainfall 0.00 in
Snow Depth Not available.
UV 0 out of 12
Pollen 7.20 out of 12
Air Quality Not available.
Flu Activity Not available.
METAR KGFK 051253Z 02011KT 1 1/2SM BR OVC002 17/17 A2988 RMK AO2 SFC VIS 5 SLP116 T01720167

10-Day Weather Forecast

×

Almanac

Astronomy

Sep. 05, 2015 Rise Set
Actual Time
Civil Twilight
Nautical Twilight
Astronomical Twilight
Moon
Length of Visible Light
Length of Day
Tomorrow will be .
, % of the Moon is Illuminated

Today's Extremes

State Highs State Lows

Community

WunderPhotos

Upload Photos

1,852,454 photos uploaded!

WunderBlogs® & News

Nearby

Air Quality

  Air Quality AQ Index Pollutant
Not available.

Snow Depth

Station Depth Elevation

Earthquake Activity

City Distance Mag. Time & Date
Minimum magnitude displayed is 2.5.

Coastal Water Temperatures

Place Temperature

Stations

Nearby Weather Stations

Station Location Temp. Windchill Dew Point Humidity Wind Precip. Elev Updated Type